sensor_id;sensor_type;location;lat;lon;timestamp;temperature;humidity
15298;DHT22;7750;48.796;9.026;2022-10-30T00:48:49;21.10;56.00
15298;DHT22;7750;48.796;9.026;2022-10-30T00:54:02;21.20;56.30
15298;DHT22;7750;48.796;9.026;2022-10-30T01:04:04;21.20;56.80
15298;DHT22;7750;48.796;9.026;2022-10-30T01:09:06;21.20;56.90
15298;DHT22;7750;48.796;9.026;2022-10-30T01:14:08;21.10;56.80
15298;DHT22;7750;48.796;9.026;2022-10-30T01:35:48;20.70;57.70
15298;DHT22;7750;48.796;9.026;2022-10-30T01:40:50;20.60;58.00
15298;DHT22;7750;48.796;9.026;2022-10-30T01:51:22;20.50;57.80
15298;DHT22;7750;48.796;9.026;2022-10-30T02:01:57;20.50;58.30
15298;DHT22;7750;48.796;9.026;2022-10-30T02:06:58;20.40;58.30
15298;DHT22;7750;48.796;9.026;2022-10-30T02:11:59;20.30;58.30
15298;DHT22;7750;48.796;9.026;2022-10-30T02:17:03;20.30;58.50
15298;DHT22;7750;48.796;9.026;2022-10-30T02:22:04;20.20;58.70
15298;DHT22;7750;48.796;9.026;2022-10-30T02:27:05;20.20;58.80
15298;DHT22;7750;48.796;9.026;2022-10-30T02:32:05;20.20;58.90
15298;DHT22;7750;48.796;9.026;2022-10-30T02:37:06;20.20;59.00
15298;DHT22;7750;48.796;9.026;2022-10-30T02:42:07;20.10;59.00
15298;DHT22;7750;48.796;9.026;2022-10-30T02:47:07;20.00;59.00
15298;DHT22;7750;48.796;9.026;2022-10-30T02:52:08;20.00;59.10
15298;DHT22;7750;48.796;9.026;2022-10-30T02:57:09;19.90;59.30
15298;DHT22;7750;48.796;9.026;2022-10-30T03:02:09;19.90;59.50
15298;DHT22;7750;48.796;9.026;2022-10-30T03:07:10;19.80;59.40
15298;DHT22;7750;48.796;9.026;2022-10-30T03:12:11;19.80;59.50
15298;DHT22;7750;48.796;9.026;2022-10-30T03:17:11;19.80;59.60
15298;DHT22;7750;48.796;9.026;2022-10-30T03:22:12;19.70;59.60
15298;DHT22;7750;48.796;9.026;2022-10-30T03:27:12;19.60;59.70
15298;DHT22;7750;48.796;9.026;2022-10-30T03:32:13;19.50;59.80
15298;DHT22;7750;48.796;9.026;2022-10-30T03:37:14;19.50;60.00
15298;DHT22;7750;48.796;9.026;2022-10-30T03:42:14;19.40;60.00
15298;DHT22;7750;48.796;9.026;2022-10-30T03:47:18;19.40;60.20
15298;DHT22;7750;48.796;9.026;2022-10-30T03:52:18;19.30;60.40
15298;DHT22;7750;48.796;9.026;2022-10-30T03:57:19;19.20;60.40
15298;DHT22;7750;48.796;9.026;2022-10-30T04:02:20;19.10;60.50
15298;DHT22;7750;48.796;9.026;2022-10-30T04:07:20;19.00;60.60
15298;DHT22;7750;48.796;9.026;2022-10-30T04:12:21;19.00;60.80
15298;DHT22;7750;48.796;9.026;2022-10-30T04:17:22;18.90;61.00
15298;DHT22;7750;48.796;9.026;2022-10-30T04:22:22;18.80;61.20
15298;DHT22;7750;48.796;9.026;2022-10-30T04:27:23;18.80;61.30
15298;DHT22;7750;48.796;9.026;2022-10-30T04:32:24;18.70;61.30
15298;DHT22;7750;48.796;9.026;2022-10-30T04:37:24;18.60;61.40
15298;DHT22;7750;48.796;9.026;2022-10-30T04:42:25;18.50;61.70
15298;DHT22;7750;48.796;9.026;2022-10-30T04:47:28;18.40;61.70
15298;DHT22;7750;48.796;9.026;2022-10-30T04:52:29;18.40;62.00
15298;DHT22;7750;48.796;9.026;2022-10-30T04:57:29;18.30;62.10
15298;DHT22;7750;48.796;9.026;2022-10-30T05:02:34;18.20;62.30
15298;DHT22;7750;48.796;9.026;2022-10-30T05:07:36;18.10;62.50
15298;DHT22;7750;48.796;9.026;2022-10-30T05:12:36;18.10;62.50
15298;DHT22;7750;48.796;9.026;2022-10-30T05:17:37;18.00;62.60
15298;DHT22;7750;48.796;9.026;2022-10-30T05:22:38;17.90;62.90
15298;DHT22;7750;48.796;9.026;2022-10-30T05:27:39;17.80;63.00
15298;DHT22;7750;48.796;9.026;2022-10-30T05:32:39;17.80;63.10
15298;DHT22;7750;48.796;9.026;2022-10-30T05:37:40;17.70;63.20
15298;DHT22;7750;48.796;9.026;2022-10-30T05:42:46;17.60;63.30
15298;DHT22;7750;48.796;9.026;2022-10-30T05:47:58;17.60;63.80
15298;DHT22;7750;48.796;9.026;2022-10-30T05:53:02;17.50;64.00
15298;DHT22;7750;48.796;9.026;2022-10-30T05:58:04;17.40;63.70
15298;DHT22;7750;48.796;9.026;2022-10-30T06:03:08;17.30;63.80
15298;DHT22;7750;48.796;9.026;2022-10-30T06:08:09;17.30;63.80
15298;DHT22;7750;48.796;9.026;2022-10-30T06:13:10;17.20;63.90
15298;DHT22;7750;48.796;9.026;2022-10-30T06:18:11;17.10;64.20
15298;DHT22;7750;48.796;9.026;2022-10-30T06:23:15;17.10;64.30
15298;DHT22;7750;48.796;9.026;2022-10-30T06:28:16;17.00;64.40
15298;DHT22;7750;48.796;9.026;2022-10-30T06:33:16;17.00;64.70
15298;DHT22;7750;48.796;9.026;2022-10-30T06:38:17;16.90;64.60
15298;DHT22;7750;48.796;9.026;2022-10-30T06:43:17;16.90;64.70
15298;DHT22;7750;48.796;9.026;2022-10-30T06:48:18;16.90;65.70
15298;DHT22;7750;48.796;9.026;2022-10-30T06:53:19;16.80;65.10
15298;DHT22;7750;48.796;9.026;2022-10-30T06:58:19;16.80;65.50
15298;DHT22;7750;48.796;9.026;2022-10-30T07:03:20;16.80;65.90
15298;DHT22;7750;48.796;9.026;2022-10-30T07:08:21;16.80;66.30
15298;DHT22;7750;48.796;9.026;2022-10-30T07:13:22;16.80;66.40
15298;DHT22;7750;48.796;9.026;2022-10-30T07:18:22;16.80;66.40
15298;DHT22;7750;48.796;9.026;2022-10-30T07:23:23;16.90;66.80
15298;DHT22;7750;48.796;9.026;2022-10-30T07:28:24;16.90;67.10
15298;DHT22;7750;48.796;9.026;2022-10-30T07:33:25;17.10;67.90
15298;DHT22;7750;48.796;9.026;2022-10-30T07:38:26;17.40;68.20
15298;DHT22;7750;48.796;9.026;2022-10-30T07:43:27;17.70;68.50
15298;DHT22;7750;48.796;9.026;2022-10-30T07:48:27;18.20;68.80
15298;DHT22;7750;48.796;9.026;2022-10-30T07:53:28;18.90;68.90
15298;DHT22;7750;48.796;9.026;2022-10-30T07:58:30;19.70;68.70
15298;DHT22;7750;48.796;9.026;2022-10-30T08:03:31;20.30;66.40
15298;DHT22;7750;48.796;9.026;2022-10-30T08:08:31;20.70;66.30
15298;DHT22;7750;48.796;9.026;2022-10-30T08:13:32;21.10;65.10
15298;DHT22;7750;48.796;9.026;2022-10-30T08:18:33;21.60;64.80
15298;DHT22;7750;48.796;9.026;2022-10-30T08:23:33;22.00;63.50
15298;DHT22;7750;48.796;9.026;2022-10-30T08:28:34;22.20;62.60
15298;DHT22;7750;48.796;9.026;2022-10-30T08:33:35;22.20;61.80
15298;DHT22;7750;48.796;9.026;2022-10-30T08:38:36;22.20;61.50
15298;DHT22;7750;48.796;9.026;2022-10-30T08:43:36;22.00;61.40
15298;DHT22;7750;48.796;9.026;2022-10-30T08:48:38;21.80;62.20
15298;DHT22;7750;48.796;9.026;2022-10-30T08:53:38;21.60;62.50
15298;DHT22;7750;48.796;9.026;2022-10-30T08:58:39;21.50;62.90
15298;DHT22;7750;48.796;9.026;2022-10-30T09:03:40;21.50;63.00
15298;DHT22;7750;48.796;9.026;2022-10-30T09:08:42;21.50;63.50
15298;DHT22;7750;48.796;9.026;2022-10-30T09:13:43;21.50;64.00
15298;DHT22;7750;48.796;9.026;2022-10-30T09:18:43;21.60;63.30
15298;DHT22;7750;48.796;9.026;2022-10-30T09:23:44;22.00;64.50
15298;DHT22;7750;48.796;9.026;2022-10-30T09:28:45;22.00;62.90
15298;DHT22;7750;48.796;9.026;2022-10-30T09:33:45;22.10;64.00
15298;DHT22;7750;48.796;9.026;2022-10-30T09:38:46;22.30;62.30
15298;DHT22;7750;48.796;9.026;2022-10-30T09:49:14;22.70;60.60
15298;DHT22;7750;48.796;9.026;2022-10-30T09:54:21;22.90;60.30
15298;DHT22;7750;48.796;9.026;2022-10-30T09:59:36;23.10;60.00
15298;DHT22;7750;48.796;9.026;2022-10-30T10:04:43;23.30;59.30
15298;DHT22;7750;48.796;9.026;2022-10-30T10:09:47;23.50;59.20
15298;DHT22;7750;48.796;9.026;2022-10-30T10:14:49;23.80;57.70
15298;DHT22;7750;48.796;9.026;2022-10-30T10:19:59;24.00;58.70
15298;DHT22;7750;48.796;9.026;2022-10-30T10:25:02;24.20;58.10
15298;DHT22;7750;48.796;9.026;2022-10-30T10:35:44;24.70;57.40
15298;DHT22;7750;48.796;9.026;2022-10-30T10:41:10;25.00;56.80
15298;DHT22;7750;48.796;9.026;2022-10-30T10:51:22;26.10;54.20
15298;DHT22;7750;48.796;9.026;2022-10-30T10:56:34;26.30;54.80
15298;DHT22;7750;48.796;9.026;2022-10-30T11:01:40;26.70;54.80
15298;DHT22;7750;48.796;9.026;2022-10-30T11:06:47;27.10;54.10
15298;DHT22;7750;48.796;9.026;2022-10-30T11:11:50;27.40;53.30
15298;DHT22;7750;48.796;9.026;2022-10-30T11:17:40;27.80;51.80
15298;DHT22;7750;48.796;9.026;2022-10-30T11:27:29;28.60;49.80
15298;DHT22;7750;48.796;9.026;2022-10-30T11:32:34;28.80;49.70
15298;DHT22;7750;48.796;9.026;2022-10-30T11:37:37;29.00;50.40
15298;DHT22;7750;48.796;9.026;2022-10-30T11:42:58;29.20;50.90
15298;DHT22;7750;48.796;9.026;2022-10-30T11:48:00;29.50;51.80
15298;DHT22;7750;48.796;9.026;2022-10-30T11:53:11;29.70;52.40
15298;DHT22;7750;48.796;9.026;2022-10-30T12:03:40;29.70;52.40
15298;DHT22;7750;48.796;9.026;2022-10-30T12:08:41;29.70;52.80
15298;DHT22;7750;48.796;9.026;2022-10-30T12:13:57;29.80;53.60
15298;DHT22;7750;48.796;9.026;2022-10-30T12:19:01;29.80;52.30
15298;DHT22;7750;48.796;9.026;2022-10-30T12:24:03;29.90;51.90
15298;DHT22;7750;48.796;9.026;2022-10-30T12:29:14;30.00;49.80
15298;DHT22;7750;48.796;9.026;2022-10-30T12:34:40;30.10;50.40
15298;DHT22;7750;48.796;9.026;2022-10-30T12:45:12;30.20;49.80
15298;DHT22;7750;48.796;9.026;2022-10-30T12:55:33;30.40;49.80
15298;DHT22;7750;48.796;9.026;2022-10-30T13:06:08;31.00;42.50
15298;DHT22;7750;48.796;9.026;2022-10-30T13:11:15;30.70;46.60
15298;DHT22;7750;48.796;9.026;2022-10-30T13:16:38;30.60;47.50
15298;DHT22;7750;48.796;9.026;2022-10-30T13:37:15;30.60;49.80
15298;DHT22;7750;48.796;9.026;2022-10-30T13:42:48;30.70;50.20
15298;DHT22;7750;48.796;9.026;2022-10-30T13:52:56;30.90;49.80
15298;DHT22;7750;48.796;9.026;2022-10-30T14:14:29;31.00;49.10
15298;DHT22;7750;48.796;9.026;2022-10-30T14:19:30;30.80;49.60
15298;DHT22;7750;48.796;9.026;2022-10-30T14:24:34;30.60;49.80
15298;DHT22;7750;48.796;9.026;2022-10-30T14:29:49;30.40;50.30
15298;DHT22;7750;48.796;9.026;2022-10-30T14:39:51;30.20;51.20
15298;DHT22;7750;48.796;9.026;2022-10-30T14:45:16;29.80;51.50
15298;DHT22;7750;48.796;9.026;2022-10-30T14:55:55;29.30;52.50
15298;DHT22;7750;48.796;9.026;2022-10-30T15:01:26;29.10;53.10
15298;DHT22;7750;48.796;9.026;2022-10-30T15:06:57;28.90;53.10
15298;DHT22;7750;48.796;9.026;2022-10-30T15:22:38;28.50;54.60
15298;DHT22;7750;48.796;9.026;2022-10-30T15:27:39;28.40;54.50
15298;DHT22;7750;48.796;9.026;2022-10-30T15:32:42;28.30;54.50
15298;DHT22;7750;48.796;9.026;2022-10-30T15:37:59;28.30;54.30
15298;DHT22;7750;48.796;9.026;2022-10-30T15:43:01;28.20;54.30
15298;DHT22;7750;48.796;9.026;2022-10-30T15:58:43;27.40;53.60
15298;DHT22;7750;48.796;9.026;2022-10-30T16:03:52;27.20;53.10
15298;DHT22;7750;48.796;9.026;2022-10-30T16:08:54;27.00;53.10
15298;DHT22;7750;48.796;9.026;2022-10-30T16:13:55;26.70;53.10
15298;DHT22;7750;48.796;9.026;2022-10-30T16:19:00;26.40;53.00
15298;DHT22;7750;48.796;9.026;2022-10-30T16:24:02;26.20;53.10
15298;DHT22;7750;48.796;9.026;2022-10-30T16:29:25;25.90;53.10
15298;DHT22;7750;48.796;9.026;2022-10-30T16:34:29;25.70;52.90
15298;DHT22;7750;48.796;9.026;2022-10-30T16:39:35;25.40;52.70
15298;DHT22;7750;48.796;9.026;2022-10-30T16:44:36;25.20;52.90
15298;DHT22;7750;48.796;9.026;2022-10-30T16:49:37;24.90;52.80
15298;DHT22;7750;48.796;9.026;2022-10-30T16:54:52;24.70;53.00
15298;DHT22;7750;48.796;9.026;2022-10-30T16:59:58;24.90;52.70
15298;DHT22;7750;48.796;9.026;2022-10-30T17:05:10;24.50;52.60
15298;DHT22;7750;48.796;9.026;2022-10-30T17:15:31;24.10;53.00
15298;DHT22;7750;48.796;9.026;2022-10-30T17:20:32;23.80;53.00
15298;DHT22;7750;48.796;9.026;2022-10-30T17:25:38;23.60;52.80
15298;DHT22;7750;48.796;9.026;2022-10-30T17:30:40;23.50;52.40
15298;DHT22;7750;48.796;9.026;2022-10-30T17:35:41;23.30;53.40
15298;DHT22;7750;48.796;9.026;2022-10-30T17:40:42;23.10;53.00
15298;DHT22;7750;48.796;9.026;2022-10-30T17:45:43;23.00;53.50
15298;DHT22;7750;48.796;9.026;2022-10-30T17:50:44;22.80;53.80
15298;DHT22;7750;48.796;9.026;2022-10-30T17:55:46;22.60;54.10
15298;DHT22;7750;48.796;9.026;2022-10-30T18:00:48;22.50;54.70
15298;DHT22;7750;48.796;9.026;2022-10-30T18:05:50;22.40;55.10
15298;DHT22;7750;48.796;9.026;2022-10-30T18:10:51;22.30;55.50
15298;DHT22;7750;48.796;9.026;2022-10-30T18:15:57;22.20;55.80
15298;DHT22;7750;48.796;9.026;2022-10-30T18:20:58;22.00;56.00
15298;DHT22;7750;48.796;9.026;2022-10-30T18:25:58;21.90;56.10
15298;DHT22;7750;48.796;9.026;2022-10-30T18:30:59;21.80;56.20
15298;DHT22;7750;48.796;9.026;2022-10-30T18:36:00;21.70;56.30
15298;DHT22;7750;48.796;9.026;2022-10-30T18:41:01;21.60;56.40
15298;DHT22;7750;48.796;9.026;2022-10-30T18:46:02;21.50;56.60
15298;DHT22;7750;48.796;9.026;2022-10-30T18:51:04;21.40;56.60
15298;DHT22;7750;48.796;9.026;2022-10-30T18:56:07;21.30;56.70
15298;DHT22;7750;48.796;9.026;2022-10-30T19:01:08;21.20;56.80
15298;DHT22;7750;48.796;9.026;2022-10-30T19:06:13;21.10;56.90
15298;DHT22;7750;48.796;9.026;2022-10-30T19:11:18;21.10;57.30
15298;DHT22;7750;48.796;9.026;2022-10-30T19:16:20;21.00;57.40
15298;DHT22;7750;48.796;9.026;2022-10-30T19:21:22;20.80;57.30
15298;DHT22;7750;48.796;9.026;2022-10-30T19:26:24;20.70;57.50
15298;DHT22;7750;48.796;9.026;2022-10-30T19:31:25;20.50;57.60
15298;DHT22;7750;48.796;9.026;2022-10-30T19:36:34;20.40;57.70
15298;DHT22;7750;48.796;9.026;2022-10-30T19:41:36;20.30;58.10
15298;DHT22;7750;48.796;9.026;2022-10-30T19:46:37;20.20;58.10
15298;DHT22;7750;48.796;9.026;2022-10-30T19:51:38;20.10;58.30
15298;DHT22;7750;48.796;9.026;2022-10-30T19:56:39;20.00;58.30
15298;DHT22;7750;48.796;9.026;2022-10-30T20:01:42;19.90;58.60
15298;DHT22;7750;48.796;9.026;2022-10-30T20:06:43;19.70;58.60
15298;DHT22;7750;48.796;9.026;2022-10-30T20:11:44;19.60;58.70
15298;DHT22;7750;48.796;9.026;2022-10-30T20:16:45;19.50;58.60
15298;DHT22;7750;48.796;9.026;2022-10-30T20:21:45;19.30;58.80
15298;DHT22;7750;48.796;9.026;2022-10-30T20:26:46;19.20;59.30
15298;DHT22;7750;48.796;9.026;2022-10-30T20:31:47;19.10;59.70
15298;DHT22;7750;48.796;9.026;2022-10-30T20:36:47;19.00;59.80
15298;DHT22;7750;48.796;9.026;2022-10-30T20:41:48;19.00;60.10
15298;DHT22;7750;48.796;9.026;2022-10-30T20:46:49;18.90;60.40
15298;DHT22;7750;48.796;9.026;2022-10-30T20:51:49;18.80;60.60
15298;DHT22;7750;48.796;9.026;2022-10-30T20:56:50;18.80;61.00
15298;DHT22;7750;48.796;9.026;2022-10-30T21:01:51;18.80;61.20
15298;DHT22;7750;48.796;9.026;2022-10-30T21:06:51;18.80;61.50
15298;DHT22;7750;48.796;9.026;2022-10-30T21:11:52;18.80;61.70
15298;DHT22;7750;48.796;9.026;2022-10-30T21:16:52;18.80;61.90
15298;DHT22;7750;48.796;9.026;2022-10-30T21:21:53;18.80;61.90
15298;DHT22;7750;48.796;9.026;2022-10-30T21:26:54;18.70;61.90
15298;DHT22;7750;48.796;9.026;2022-10-30T21:31:54;18.70;61.80
15298;DHT22;7750;48.796;9.026;2022-10-30T21:36:55;18.60;61.70
15298;DHT22;7750;48.796;9.026;2022-10-30T21:41:55;18.60;61.80
15298;DHT22;7750;48.796;9.026;2022-10-30T21:46:56;18.40;61.80
15298;DHT22;7750;48.796;9.026;2022-10-30T21:51:57;18.30;61.90
15298;DHT22;7750;48.796;9.026;2022-10-30T21:56:57;18.20;62.00
15298;DHT22;7750;48.796;9.026;2022-10-30T22:01:58;18.10;62.10
15298;DHT22;7750;48.796;9.026;2022-10-30T22:06:59;18.00;62.40
15298;DHT22;7750;48.796;9.026;2022-10-30T22:12:00;17.90;63.20
15298;DHT22;7750;48.796;9.026;2022-10-30T22:17:00;17.90;62.60
15298;DHT22;7750;48.796;9.026;2022-10-30T22:22:01;17.80;62.70
15298;DHT22;7750;48.796;9.026;2022-10-30T22:27:02;17.70;62.80
15298;DHT22;7750;48.796;9.026;2022-10-30T22:32:02;17.60;62.80
15298;DHT22;7750;48.796;9.026;2022-10-30T22:37:03;17.50;63.20
15298;DHT22;7750;48.796;9.026;2022-10-30T22:42:04;17.50;63.40
15298;DHT22;7750;48.796;9.026;2022-10-30T22:47:04;17.40;63.50
15298;DHT22;7750;48.796;9.026;2022-10-30T22:52:05;17.30;63.70
15298;DHT22;7750;48.796;9.026;2022-10-30T22:57:06;17.30;63.90
15298;DHT22;7750;48.796;9.026;2022-10-30T23:02:06;17.20;63.90
15298;DHT22;7750;48.796;9.026;2022-10-30T23:07:07;17.20;64.00
15298;DHT22;7750;48.796;9.026;2022-10-30T23:12:08;17.10;64.10
15298;DHT22;7750;48.796;9.026;2022-10-30T23:17:08;17.10;64.40
15298;DHT22;7750;48.796;9.026;2022-10-30T23:22:09;17.00;64.30
15298;DHT22;7750;48.796;9.026;2022-10-30T23:27:10;17.00;64.60
15298;DHT22;7750;48.796;9.026;2022-10-30T23:32:10;16.90;64.60
15298;DHT22;7750;48.796;9.026;2022-10-30T23:37:11;16.80;64.60
15298;DHT22;7750;48.796;9.026;2022-10-30T23:42:12;16.80;64.80
15298;DHT22;7750;48.796;9.026;2022-10-30T23:47:12;16.70;64.80
15298;DHT22;7750;48.796;9.026;2022-10-30T23:52:13;16.60;65.00
15298;DHT22;7750;48.796;9.026;2022-10-30T23:57:14;16.50;65.00
